Time;durP1;ratioP1;P1;durP2;ratioP2;P2;SDS_P1;SDS_P2;PMS_P1;PMS_P2;Temp;Humidity;BMP_temperature;BMP_pressure;BME280_temperature;BME280_humidity;BME280_pressure;Samples;Min_cycle;Max_cycle;Signal;HPM_P1;HPM_P2
2023/12/06 00:01:42;;;;;;;21.83;10.52;;;;;;;-6.57;67.53;100081.44;5077811;28;20085;-62
2023/12/06 00:04:08;;;;;;;20.25;10.50;;;;;;;-6.64;66.95;100083.63;5072224;28;20036;-60
2023/12/06 00:06:33;;;;;;;23.52;10.57;;;;;;;-6.66;67.18;100083.72;5070731;28;20044;-61
2023/12/06 00:08:59;;;;;;;22.35;11.18;;;;;;;-6.64;67.55;100081.88;5071389;28;20481;-59
2023/12/06 00:11:25;;;;;;;24.00;11.30;;;;;;;-6.54;67.65;100094.09;5082459;28;20039;-60
2023/12/06 00:13:51;;;;;;;24.52;11.55;;;;;;;-6.59;67.45;100098.78;5062457;28;20410;-61
2023/12/06 00:16:16;;;;;;;23.27;11.27;;;;;;;-6.56;67.44;100094.19;5089377;28;20093;-64
2023/12/06 00:18:43;;;;;;;25.30;11.88;;;;;;;-6.52;67.52;100094.84;5075524;28;20037;-61
2023/12/06 00:21:09;;;;;;;22.52;11.80;;;;;;;-6.53;66.90;100101.75;5076996;28;20044;-61
2023/12/06 00:23:35;;;;;;;24.02;11.70;;;;;;;-6.52;67.26;100105.97;5074776;28;20044;-60
2023/12/06 00:26:01;;;;;;;24.15;11.80;;;;;;;-6.51;66.83;100109.38;5092182;28;20055;-62
2023/12/06 00:28:26;;;;;;;27.25;12.75;;;;;;;-6.57;67.31;100092.56;5092178;28;20074;-61
2023/12/06 00:30:52;;;;;;;25.02;11.60;;;;;;;-6.55;67.09;100100.22;5074859;28;20086;-62
2023/12/06 00:33:18;;;;;;;25.88;11.32;;;;;;;-6.55;67.27;100095.06;5086988;28;20044;-60
2023/12/06 00:35:43;;;;;;;20.98;11.27;;;;;;;-6.51;66.50;100097.28;5094865;28;20161;-61
2023/12/06 00:38:09;;;;;;;27.85;14.27;;;;;;;-6.52;66.27;100097.41;5078013;28;20071;-61
2023/12/06 00:40:35;;;;;;;32.42;13.45;;;;;;;-6.62;66.35;100092.06;5056240;28;20070;-61
2023/12/06 00:43:03;;;;;;;30.90;13.32;;;;;;;-6.68;66.15;100092.50;5077830;28;20056;-61
2023/12/06 00:45:29;;;;;;;29.38;14.05;;;;;;;-6.72;66.05;100091.91;5078368;28;20036;-59
2023/12/06 00:47:55;;;;;;;33.75;13.15;;;;;;;-6.73;65.95;100100.59;5074166;28;20056;-62
2023/12/06 00:50:21;;;;;;;29.42;13.70;;;;;;;-6.78;66.45;100102.66;5078178;28;20036;-61
2023/12/06 00:52:46;;;;;;;28.20;12.77;;;;;;;-6.82;66.34;100102.97;5082166;28;20485;-61
2023/12/06 00:55:12;;;;;;;28.70;12.57;;;;;;;-6.98;66.50;100110.97;5073190;28;20174;-60
2023/12/06 00:57:38;;;;;;;24.27;11.50;;;;;;;-7.20;65.41;100107.31;5093436;28;20135;-60
2023/12/06 01:00:04;;;;;;;25.38;12.65;;;;;;;-7.41;66.48;100108.78;5093117;28;20036;-62
2023/12/06 01:02:30;;;;;;;30.13;13.05;;;;;;;-7.34;67.45;100107.44;5094494;28;20052;-61
2023/12/06 01:04:55;;;;;;;27.85;13.32;;;;;;;-7.26;68.38;100118.06;5084592;28;20028;-59
2023/12/06 01:07:21;;;;;;;34.45;16.58;;;;;;;-7.37;66.60;100115.38;5073892;28;20417;-61
2023/12/06 01:09:46;;;;;;;35.75;16.52;;;;;;;-7.32;68.55;100111.56;5074161;28;20040;-62
2023/12/06 01:12:12;;;;;;;29.25;15.57;;;;;;;-7.41;67.17;100109.63;5074053;28;20044;-61
2023/12/06 01:14:38;;;;;;;28.48;12.65;;;;;;;-7.45;67.49;100118.47;5093429;28;20114;-62
2023/12/06 01:17:03;;;;;;;29.05;13.13;;;;;;;-7.46;68.69;100109.09;5093766;28;20044;-61
2023/12/06 01:19:30;;;;;;;23.48;11.93;;;;;;;-7.38;67.92;100106.00;5093782;28;20042;-60
2023/12/06 01:21:56;;;;;;;27.85;13.85;;;;;;;-7.37;68.78;100112.81;5093562;28;20040;-61
2023/12/06 01:24:21;;;;;;;29.15;13.52;;;;;;;-7.46;68.02;100113.44;5082758;28;20036;-61
2023/12/06 01:26:47;;;;;;;25.88;13.80;;;;;;;-7.64;68.55;100100.06;5093819;28;20044;-61
2023/12/06 01:29:13;;;;;;;26.73;12.65;;;;;;;-7.65;68.72;100099.22;5084320;28;20056;-61
2023/12/06 01:31:38;;;;;;;34.42;16.25;;;;;;;-7.69;69.11;100108.06;5083877;28;20508;-62
2023/12/06 01:34:05;;;;;;;30.48;17.20;;;;;;;-7.73;68.87;100104.06;5072283;28;20130;-61
2023/12/06 01:36:32;;;;;;;28.45;16.42;;;;;;;-7.77;69.43;100105.19;5074467;28;20039;-60
2023/12/06 01:38:58;;;;;;;50.00;25.17;;;;;;;-7.95;68.12;100103.84;5079578;28;20044;-61
2023/12/06 01:41:23;;;;;;;39.28;18.63;;;;;;;-8.11;69.88;100109.19;5093189;28;20062;-61
2023/12/06 01:43:49;;;;;;;28.85;15.73;;;;;;;-8.13;70.09;100104.13;5087250;28;20068;-60
2023/12/06 01:46:15;;;;;;;30.17;14.95;;;;;;;-8.30;68.64;100105.22;5091643;28;20426;-61
2023/12/06 01:48:43;;;;;;;30.95;14.30;;;;;;;-8.34;69.40;100111.50;5076759;28;20510;-61
2023/12/06 01:51:09;;;;;;;27.45;13.05;;;;;;;-8.44;70.01;100109.63;5080541;28;20050;-61
2023/12/06 01:53:36;;;;;;;27.30;12.05;;;;;;;-8.52;70.39;100115.28;5075230;28;20072;-60
2023/12/06 01:56:02;;;;;;;21.38;10.88;;;;;;;-8.51;70.83;100104.88;5074989;28;20486;-61
2023/12/06 01:58:28;;;;;;;23.33;10.95;;;;;;;-8.65;70.60;100110.06;5093112;28;20109;-61
2023/12/06 02:00:55;;;;;;;28.50;13.07;;;;;;;-8.75;70.94;100109.00;5093530;28;20483;-61
2023/12/06 02:03:20;;;;;;;25.35;12.82;;;;;;;-8.87;71.84;100104.66;5093671;28;20044;-60
2023/12/06 02:05:47;;;;;;;26.35;13.02;;;;;;;-8.96;72.60;100106.88;5093466;28;20039;-62
2023/12/06 02:08:12;;;;;;;31.98;14.95;;;;;;;-9.02;71.96;100111.56;5088752;28;20409;-60
2023/12/06 02:10:38;;;;;;;33.95;14.63;;;;;;;-9.09;72.14;100105.97;5072026;28;20051;-62
2023/12/06 02:13:03;;;;;;;36.65;15.07;;;;;;;-9.11;72.83;100112.94;5072832;28;20569;-61
2023/12/06 02:15:29;;;;;;;27.73;14.52;;;;;;;-9.11;73.10;100115.53;5072958;28;20040;-62
2023/12/06 02:17:55;;;;;;;26.63;12.77;;;;;;;-9.07;72.67;100118.72;5072853;28;20044;-60
2023/12/06 02:20:20;;;;;;;25.35;12.38;;;;;;;-9.06;73.72;100110.91;5087092;28;20539;-63
2023/12/06 02:22:48;;;;;;;20.95;10.32;;;;;;;-9.09;73.42;100121.38;5091692;28;20046;-61
2023/12/06 02:25:14;;;;;;;19.98;9.30;;;;;;;-9.07;73.33;100119.53;5091750;28;20650;-61
2023/12/06 02:27:41;;;;;;;22.80;10.93;;;;;;;-9.12;73.45;100125.88;5092673;28;20118;-61
2023/12/06 02:30:09;;;;;;;24.13;10.15;;;;;;;-9.21;73.38;100130.66;5091727;28;20543;-61
2023/12/06 02:32:35;;;;;;;24.42;11.00;;;;;;;-9.31;73.29;100124.44;5091924;28;20052;-61
2023/12/06 02:35:03;;;;;;;22.77;10.38;;;;;;;-9.25;74.22;100129.19;5092622;28;20047;-61
2023/12/06 02:37:29;;;;;;;22.70;10.75;;;;;;;-9.25;72.72;100125.81;5091445;28;20075;-61
2023/12/06 02:39:55;;;;;;;22.50;10.20;;;;;;;-9.24;73.21;100125.69;5092190;28;20079;-60
2023/12/06 02:42:21;;;;;;;30.75;11.13;;;;;;;-9.16;73.38;100126.06;5091103;28;20043;-59
2023/12/06 02:44:47;;;;;;;25.30;10.93;;;;;;;-9.24;72.44;100135.16;5087420;28;20039;-62
2023/12/06 02:47:12;;;;;;;22.85;11.07;;;;;;;-9.11;73.37;100138.63;5054094;28;20043;-60
2023/12/06 02:49:38;;;;;;;22.42;10.02;;;;;;;-8.94;73.19;100137.59;5071867;28;20075;-61
2023/12/06 02:52:06;;;;;;;22.42;11.15;;;;;;;-8.70;73.44;100143.78;5072754;28;20086;-61
2023/12/06 02:54:31;;;;;;;25.45;12.70;;;;;;;-8.52;71.96;100153.84;5083077;28;20071;-62
2023/12/06 02:56:57;;;;;;;24.30;12.98;;;;;;;-8.42;70.79;100143.78;5071880;28;20075;-61
2023/12/06 02:59:22;;;;;;;31.15;12.95;;;;;;;-8.44;69.52;100153.34;5082629;28;20040;-61
2023/12/06 03:01:48;;;;;;;29.27;14.13;;;;;;;-8.40;69.91;100160.78;5091996;28;20059;-63
2023/12/06 03:04:14;;;;;;;28.48;14.30;;;;;;;-8.37;69.51;100157.97;5092511;28;20066;-61
2023/12/06 03:06:39;;;;;;;24.42;11.93;;;;;;;-8.45;69.03;100165.38;5091899;28;20085;-62
2023/12/06 03:09:05;;;;;;;27.83;12.90;;;;;;;-8.41;68.90;100161.72;5090826;28;20054;-60
2023/12/06 03:11:31;;;;;;;26.67;12.40;;;;;;;-8.29;69.47;100157.50;5079976;28;20441;-60
2023/12/06 03:13:56;;;;;;;31.63;14.02;;;;;;;-8.35;67.71;100163.00;5089667;28;20044;-61
2023/12/06 03:16:22;;;;;;;31.08;14.48;;;;;;;-8.26;67.19;100162.44;5090459;28;20032;-61
2023/12/06 03:18:50;;;;;;;27.50;14.18;;;;;;;-8.25;66.55;100166.66;5091924;28;20105;-61
2023/12/06 03:21:16;;;;;;;30.00;13.70;;;;;;;-8.19;67.51;100166.25;5090558;28;20115;-61
2023/12/06 03:23:41;;;;;;;26.17;13.82;;;;;;;-8.15;66.24;100170.28;5091790;28;20556;-60
2023/12/06 03:26:07;;;;;;;28.15;13.98;;;;;;;-8.26;66.64;100172.72;5091468;28;20122;-61
2023/12/06 03:28:33;;;;;;;25.63;12.73;;;;;;;-8.30;66.74;100177.22;5090152;28;20551;-60
2023/12/06 03:31:00;;;;;;;30.25;13.55;;;;;;;-8.41;65.74;100178.84;5091689;28;20040;-61
2023/12/06 03:33:25;;;;;;;24.58;11.32;;;;;;;-8.45;67.96;100193.66;5091678;28;20096;-60
2023/12/06 03:35:51;;;;;;;27.75;11.10;;;;;;;-8.48;67.30;100189.53;5091373;28;20036;-62
2023/12/06 03:38:17;;;;;;;24.80;12.63;;;;;;;-8.37;67.94;100191.41;5091611;28;20097;-61
2023/12/06 03:40:43;;;;;;;27.10;12.73;;;;;;;-8.42;67.24;100190.06;5091626;28;20040;-61
2023/12/06 03:43:08;;;;;;;28.23;12.07;;;;;;;-8.54;66.82;100183.94;5089904;28;20151;-61
2023/12/06 03:45:35;;;;;;;24.65;12.15;;;;;;;-8.54;66.47;100197.63;5089910;28;20539;-63
2023/12/06 03:48:01;;;;;;;21.35;11.63;;;;;;;-8.53;66.92;100196.72;5079305;28;20095;-61
2023/12/06 03:50:26;;;;;;;25.63;12.27;;;;;;;-8.57;65.63;100186.72;5070933;28;20064;-62
2023/12/06 03:52:52;;;;;;;26.13;11.30;;;;;;;-8.63;66.63;100193.06;5069686;28;20048;-60
2023/12/06 03:55:18;;;;;;;23.85;11.30;;;;;;;-8.58;66.83;100197.94;5075798;28;20440;-62
2023/12/06 03:57:44;;;;;;;26.63;11.63;;;;;;;-8.74;66.43;100201.41;5078028;28;20405;-59
2023/12/06 04:00:11;;;;;;;24.23;11.38;;;;;;;-8.55;67.50;100206.28;5077099;28;20040;-60
2023/12/06 04:02:40;;;;;;;26.05;11.20;;;;;;;-8.42;67.25;100214.03;5089869;28;20043;-61
2023/12/06 04:05:06;;;;;;;20.98;10.63;;;;;;;-8.30;66.35;100217.56;5088423;28;20031;-64
2023/12/06 04:07:31;;;;;;;19.50;10.90;;;;;;;-8.42;64.12;100223.50;5080579;28;20054;-61
2023/12/06 04:09:57;;;;;;;27.38;11.25;;;;;;;-8.46;65.36;100225.44;5091126;28;20048;-63
2023/12/06 04:12:23;;;;;;;24.15;11.35;;;;;;;-8.49;65.06;100218.75;5074380;28;20048;-60
2023/12/06 04:14:48;;;;;;;26.15;11.75;;;;;;;-8.56;64.45;100221.78;5070767;28;20052;-61
2023/12/06 04:17:14;;;;;;;22.75;10.25;;;;;;;-8.56;64.96;100232.91;5070792;28;20044;-61
2023/12/06 04:19:40;;;;;;;21.40;10.68;;;;;;;-8.60;63.99;100226.28;5078585;28;20039;-61
2023/12/06 04:22:05;;;;;;;22.55;10.45;;;;;;;-8.60;64.24;100225.47;5090920;28;20036;-61
2023/12/06 04:24:32;;;;;;;22.48;10.95;;;;;;;-8.68;65.24;100233.63;5074464;28;20036;-59
2023/12/06 04:26:57;;;;;;;25.48;12.43;;;;;;;-8.72;65.26;100230.44;5069311;28;20413;-61
2023/12/06 04:29:23;;;;;;;25.25;10.85;;;;;;;-8.78;65.46;100235.94;5070565;28;20054;-62
2023/12/06 04:31:49;;;;;;;31.95;12.32;;;;;;;-8.86;65.64;100234.75;5068156;28;20049;-62
2023/12/06 04:34:14;;;;;;;24.85;11.10;;;;;;;-8.99;65.44;100235.50;5070683;28;20092;-62
2023/12/06 04:36:40;;;;;;;19.90;10.57;;;;;;;-9.10;65.85;100240.44;5070271;28;20060;-61
2023/12/06 04:39:06;;;;;;;26.45;11.52;;;;;;;-9.25;66.85;100241.34;5071109;28;20044;-59
2023/12/06 04:41:31;;;;;;;30.85;12.18;;;;;;;-9.33;66.30;100256.38;5069626;28;20406;-62
2023/12/06 04:43:57;;;;;;;22.50;10.98;;;;;;;-9.40;66.70;100250.78;5069542;28;20049;-60
2023/12/06 04:46:23;;;;;;;23.17;11.40;;;;;;;-9.52;66.03;100257.44;5070467;28;20529;-63
2023/12/06 04:48:48;;;;;;;30.15;12.23;;;;;;;-9.64;67.50;100265.84;5069146;28;20502;-60
2023/12/06 04:51:15;;;;;;;26.98;12.10;;;;;;;-9.80;66.35;100265.88;5051956;28;20040;-62
2023/12/06 04:53:41;;;;;;;25.58;11.80;;;;;;;-9.64;66.63;100270.97;5069265;28;20036;-61
2023/12/06 04:56:07;;;;;;;25.77;11.82;;;;;;;-9.44;66.91;100270.69;5080781;28;20123;-60
2023/12/06 04:58:33;;;;;;;25.80;11.70;;;;;;;-9.43;66.49;100279.19;5072760;28;20041;-58
2023/12/06 05:00:58;;;;;;;29.25;11.73;;;;;;;-9.42;65.47;100281.66;5058460;28;20052;-61
2023/12/06 05:03:24;;;;;;;29.98;11.43;;;;;;;-9.57;66.12;100274.84;5075398;28;20194;-61
2023/12/06 05:05:50;;;;;;;28.67;12.80;;;;;;;-9.66;66.26;100277.94;5074202;28;20070;-62
2023/12/06 05:08:16;;;;;;;29.00;11.82;;;;;;;-9.63;66.65;100278.56;5072694;28;20071;-62
2023/12/06 05:10:42;;;;;;;26.35;12.10;;;;;;;-9.62;68.13;100281.97;5072187;28;20135;-60
2023/12/06 05:13:08;;;;;;;21.83;11.18;;;;;;;-9.47;67.01;100282.84;5084244;28;20055;-61
2023/12/06 05:15:34;;;;;;;24.58;11.38;;;;;;;-9.54;66.67;100294.38;5079351;28;20196;-61
2023/12/06 05:18:01;;;;;;;27.17;11.88;;;;;;;-9.61;66.66;100299.84;5086578;28;20126;-62
2023/12/06 05:20:27;;;;;;;22.50;10.60;;;;;;;-9.75;67.57;100302.38;5091365;28;20046;-63
2023/12/06 05:22:52;;;;;;;24.33;11.48;;;;;;;-9.84;67.84;100303.69;5074173;28;20048;-59
2023/12/06 05:25:19;;;;;;;21.30;11.15;;;;;;;-9.85;67.44;100304.63;5091578;28;20449;-61
2023/12/06 05:27:45;;;;;;;28.13;11.23;;;;;;;-9.92;68.21;100303.28;5091518;28;20098;-60
2023/12/06 05:30:11;;;;;;;21.55;10.05;;;;;;;-10.03;67.64;100304.78;5090079;28;20318;-62
2023/12/06 05:32:37;;;;;;;23.85;10.57;;;;;;;-10.15;68.98;100304.53;5091484;28;20131;-61
2023/12/06 05:35:05;;;;;;;18.73;9.38;;;;;;;-10.24;69.50;100299.09;5073274;28;20127;-62
2023/12/06 05:37:30;;;;;;;24.55;11.73;;;;;;;-10.34;69.61;100304.75;5073261;28;20050;-62
2023/12/06 05:39:56;;;;;;;26.17;11.68;;;;;;;-10.27;68.64;100304.41;5094043;28;20035;-63
2023/12/06 05:42:22;;;;;;;32.40;10.65;;;;;;;-10.34;68.30;100314.19;5090142;28;20040;-62
2023/12/06 05:44:47;;;;;;;23.17;11.43;;;;;;;-10.25;68.45;100312.81;5076821;28;20032;-62
2023/12/06 05:47:13;;;;;;;24.17;11.98;;;;;;;-10.24;67.84;100312.72;5094603;28;20052;-64
2023/12/06 05:49:39;;;;;;;21.75;11.32;;;;;;;-10.32;68.09;100320.88;5093068;28;20194;-63
2023/12/06 05:52:05;;;;;;;25.75;11.50;;;;;;;-10.38;67.78;100316.09;5076448;28;20131;-62
2023/12/06 05:54:30;;;;;;;23.15;10.73;;;;;;;-10.43;68.73;100325.75;5078460;28;20139;-61
2023/12/06 05:56:57;;;;;;;26.30;10.93;;;;;;;-10.46;68.68;100322.50;5094660;28;20071;-63
2023/12/06 05:59:24;;;;;;;25.77;11.13;;;;;;;-10.56;68.67;100323.00;5059152;28;20040;-61
2023/12/06 06:01:49;;;;;;;25.50;11.25;;;;;;;-10.62;69.16;100325.03;5089825;28;20040;-60
2023/12/06 06:04:15;;;;;;;24.20;11.32;;;;;;;-10.79;69.24;100328.47;5107227;28;20055;-61
2023/12/06 06:06:41;;;;;;;31.20;11.90;;;;;;;-10.77;69.62;100331.78;5106139;28;20038;-62
2023/12/06 06:09:07;;;;;;;23.75;10.07;;;;;;;-11.01;70.75;100326.97;5115063;28;20051;-62
2023/12/06 06:11:32;;;;;;;22.75;10.30;;;;;;;-11.01;70.13;100328.72;5114476;28;20028;-63
2023/12/06 06:13:58;;;;;;;23.05;10.93;;;;;;;-11.01;70.79;100339.78;5113763;28;20477;-60
2023/12/06 06:16:24;;;;;;;22.88;10.20;;;;;;;-11.00;70.63;100335.50;5087996;28;20139;-63
2023/12/06 06:18:50;;;;;;;22.88;9.80;;;;;;;-11.16;71.42;100342.28;5097175;28;20035;-61
2023/12/06 06:21:15;;;;;;;25.10;10.00;;;;;;;-11.16;71.61;100352.53;5091031;28;20051;-61
2023/12/06 06:23:41;;;;;;;26.63;12.07;;;;;;;-11.06;71.70;100353.72;5090997;28;20043;-62
2023/12/06 06:26:08;;;;;;;23.13;11.27;;;;;;;-10.99;71.51;100349.97;5089270;28;20043;-63
2023/12/06 06:28:33;;;;;;;23.75;10.82;;;;;;;-11.02;70.68;100352.69;5083731;28;20263;-62
2023/12/06 06:30:59;;;;;;;22.75;11.25;;;;;;;-10.90;71.49;100356.38;5096877;28;20044;-63
2023/12/06 06:33:25;;;;;;;33.35;12.50;;;;;;;-10.85;70.67;100364.63;5086718;28;20040;-62
2023/12/06 06:35:50;;;;;;;28.92;11.32;;;;;;;-10.76;70.53;100362.44;5112713;28;20046;-63
2023/12/06 06:38:16;;;;;;;29.58;12.63;;;;;;;-10.60;69.71;100356.53;5112475;28;20050;-63
2023/12/06 06:40:42;;;;;;;25.10;11.48;;;;;;;-10.47;68.79;100365.25;5112517;28;20393;-63
2023/12/06 06:43:08;;;;;;;26.42;11.80;;;;;;;-10.40;69.12;100369.16;5111192;28;20042;-62
2023/12/06 06:45:33;;;;;;;26.52;11.35;;;;;;;-10.30;69.28;100369.50;5112915;28;20037;-62
2023/12/06 06:47:59;;;;;;;23.35;10.60;;;;;;;-10.35;68.56;100376.59;5111705;28;20520;-62
2023/12/06 06:50:25;;;;;;;29.38;11.15;;;;;;;-10.37;69.15;100371.56;5111266;28;20123;-63
2023/12/06 06:52:51;;;;;;;27.77;11.45;;;;;;;-10.31;68.76;100381.47;5110752;28;20044;-61
2023/12/06 06:55:17;;;;;;;23.77;11.23;;;;;;;-10.33;68.64;100374.78;5094074;28;20039;-63
2023/12/06 06:57:43;;;;;;;24.48;11.70;;;;;;;-10.15;68.89;100373.78;5101159;28;20044;-60
2023/12/06 07:00:16;;;;;;;22.65;10.60;;;;;;;-10.04;67.67;100380.09;5101921;28;20443;-65
2023/12/06 07:02:41;;;;;;;27.13;11.27;;;;;;;-10.04;67.25;100377.53;5089482;28;20043;-62
2023/12/06 07:05:12;;;;;;;28.30;13.02;;;;;;;-9.89;67.55;100385.22;5093828;28;20042;-62
2023/12/06 07:07:39;;;;;;;;;;;;;;;-9.80;67.16;100386.44;5107047;28;20056;-61
2023/12/06 07:10:06;;;;;;;18.63;8.55;;;;;;;-9.85;66.27;100380.75;5110803;28;19927;-63
2023/12/06 07:12:32;;;;;;;30.33;12.00;;;;;;;-9.72;66.75;100386.88;5110891;28;20458;-65
2023/12/06 07:14:59;;;;;;;27.45;11.75;;;;;;;-9.64;66.69;100384.72;5092008;28;20036;-61
2023/12/06 07:17:25;;;;;;;28.25;11.73;;;;;;;-9.52;66.71;100388.34;5092072;28;20059;-62
2023/12/06 07:19:52;;;;;;;26.08;12.23;;;;;;;-9.41;65.96;100386.03;5071583;28;20141;-61
2023/12/06 07:22:38;;;;;;;24.90;11.82;;;;;;;-9.30;65.95;100379.44;5086661;28;20123;-61
2023/12/06 07:25:05;;;;;;;23.83;11.00;;;;;;;-9.20;65.00;100381.41;5101611;28;20123;-63
2023/12/06 07:27:31;;;;;;;27.30;12.60;;;;;;;-8.94;65.89;100377.38;5096377;28;20047;-62
2023/12/06 07:29:58;;;;;;;40.13;14.60;;;;;;;-8.81;65.49;100385.19;5094106;28;20035;-60
2023/12/06 07:32:27;;;;;;;36.50;13.13;;;;;;;-8.70;63.48;100387.97;5060304;28;20165;-63
2023/12/06 07:34:53;;;;;;;29.65;12.00;;;;;;;-8.78;63.57;100386.75;5059980;28;20032;-61
2023/12/06 07:37:19;;;;;;;32.63;14.65;;;;;;;-8.72;62.98;100383.81;5093936;28;20042;-61
2023/12/06 07:39:46;;;;;;;26.85;12.10;;;;;;;-8.78;63.63;100389.31;5093060;28;20035;-62
2023/12/06 07:42:11;;;;;;;33.67;14.80;;;;;;;-8.93;62.82;100388.47;5110480;28;20042;-63
2023/12/06 07:44:37;;;;;;;30.08;13.50;;;;;;;-9.40;63.93;100356.03;5111598;28;20397;-65
2023/12/06 07:47:03;;;;;;;31.08;13.15;;;;;;;-9.12;64.46;100393.81;5111792;28;20071;-62
2023/12/06 07:49:29;;;;;;;35.00;14.77;;;;;;;-9.19;64.09;100398.47;5083412;28;20056;-61
2023/12/06 07:51:55;;;;;;;30.90;12.60;;;;;;;-9.18;65.08;100401.88;5113191;28;20047;-61
2023/12/06 07:54:21;;;;;;;29.77;12.68;;;;;;;-9.31;64.02;100396.59;5077741;28;20035;-60
2023/12/06 07:56:46;;;;;;;36.45;14.30;;;;;;;-9.29;64.99;100397.34;5105724;28;20090;-61
2023/12/06 07:59:12;;;;;;;31.98;12.85;;;;;;;-9.28;64.42;100398.19;5072034;28;20048;-62
2023/12/06 08:01:38;;;;;;;27.75;13.23;;;;;;;-9.47;66.11;100404.34;5110427;28;20482;-63
2023/12/06 08:04:04;;;;;;;31.40;12.88;;;;;;;-9.58;66.11;100408.41;5103965;28;20548;-64
2023/12/06 08:06:31;;;;;;;36.78;14.65;;;;;;;-9.39;66.21;100409.84;5092041;28;20062;-63
2023/12/06 08:08:56;;;;;;;29.05;14.13;;;;;;;-9.42;66.05;100409.19;5090395;28;20101;-62
2023/12/06 08:11:23;;;;;;;29.02;12.43;;;;;;;-9.56;65.91;100411.69;5106490;28;20036;-63
2023/12/06 08:13:49;;;;;;;29.85;13.55;;;;;;;-9.35;66.12;100422.53;5094287;28;20062;-60
2023/12/06 08:16:14;;;;;;;20.75;10.38;;;;;;;-9.57;66.65;100413.44;5106731;28;20509;-62
2023/12/06 08:18:40;;;;;;;31.27;14.77;;;;;;;-9.45;66.58;100417.06;5111568;28;20044;-62
2023/12/06 08:21:09;;;;;;;33.33;14.10;;;;;;;-9.59;67.17;100417.81;5105989;28;20055;-63
2023/12/06 08:23:35;;;;;;;19.15;10.77;;;;;;;-9.62;67.63;100425.69;5111348;28;20058;-62
2023/12/06 08:26:01;;;;;;;23.23;11.18;;;;;;;-9.57;67.16;100420.31;5109529;28;20043;-64
2023/12/06 08:28:27;;;;;;;30.35;12.55;;;;;;;-9.47;67.55;100431.72;5111493;28;20052;-62
2023/12/06 08:30:52;;;;;;;27.25;12.25;;;;;;;-9.48;67.62;100424.94;5111047;28;20048;-61
2023/12/06 08:33:19;;;;;;;28.48;11.68;;;;;;;-9.51;67.92;100430.25;5113751;28;20054;-62
2023/12/06 08:35:45;;;;;;;22.55;10.77;;;;;;;-9.55;67.49;100434.72;5113837;28;20134;-62
2023/12/06 08:38:11;;;;;;;33.45;12.73;;;;;;;-9.46;67.19;100441.09;5115390;28;20047;-62
2023/12/06 08:40:37;;;;;;;26.80;11.95;;;;;;;-9.44;67.98;100427.28;5113862;28;20039;-63
2023/12/06 08:43:03;;;;;;;30.00;13.35;;;;;;;-9.41;68.58;100437.38;5110062;28;20090;-61
2023/12/06 08:45:29;;;;;;;23.77;12.32;;;;;;;-9.25;67.48;100439.91;5083329;28;20497;-61
2023/12/06 08:47:55;;;;;;;24.63;12.30;;;;;;;-9.31;67.78;100439.44;5114352;28;20420;-60
2023/12/06 08:50:21;;;;;;;27.75;11.23;;;;;;;-9.16;66.94;100433.44;5095933;28;20504;-62
2023/12/06 08:52:47;;;;;;;24.77;11.75;;;;;;;-9.25;66.95;100437.34;5097373;28;20075;-62
2023/12/06 08:55:12;;;;;;;23.40;11.20;;;;;;;-9.24;67.10;100435.59;5082890;28;20508;-61
2023/12/06 08:57:39;;;;;;;27.42;12.40;;;;;;;-9.38;67.80;100428.69;5114493;28;20484;-62
2023/12/06 09:00:07;;;;;;;29.00;11.77;;;;;;;-9.31;68.10;100429.16;5112457;28;20462;-61
2023/12/06 09:02:37;;;;;;;27.70;12.85;;;;;;;-9.22;68.06;100433.78;5090789;28;20497;-62
2023/12/06 09:05:02;;;;;;;26.08;11.43;;;;;;;-9.24;67.50;100438.16;5099429;28;20485;-62
2023/12/06 09:07:29;;;;;;;24.80;11.85;;;;;;;-9.20;67.23;100427.66;5113487;28;20054;-62
2023/12/06 09:09:54;;;;;;;24.05;10.77;;;;;;;-9.18;66.92;100427.56;5113948;28;20451;-63
2023/12/06 09:12:21;;;;;;;26.55;11.65;;;;;;;-9.25;67.78;100428.81;5062078;28;20040;-62
2023/12/06 09:14:46;;;;;;;25.67;10.90;;;;;;;-9.20;67.87;100419.94;5078750;28;20057;-63
2023/12/06 09:17:12;;;;;;;26.95;12.15;;;;;;;-9.17;68.10;100421.53;5114423;28;20039;-60
2023/12/06 09:19:38;;;;;;;27.50;11.70;;;;;;;-8.99;67.35;100417.09;5105600;28;20048;-61
2023/12/06 09:22:05;;;;;;;25.42;12.00;;;;;;;-8.77;67.18;100427.75;5107159;28;20060;-62
2023/12/06 09:24:31;;;;;;;29.95;11.95;;;;;;;-8.72;67.07;100423.19;5102730;28;20036;-62
2023/12/06 09:26:57;;;;;;;28.77;12.02;;;;;;;-8.88;66.72;100426.72;5114095;28;20052;-61
2023/12/06 09:29:22;;;;;;;26.63;12.95;;;;;;;-8.86;67.75;100428.31;5096299;28;20050;-61
2023/12/06 09:31:48;;;;;;;27.92;12.50;;;;;;;-8.92;67.26;100423.50;5112304;28;20043;-62
2023/12/06 09:34:14;;;;;;;31.02;12.32;;;;;;;-8.88;66.83;100424.16;5114454;28;20059;-63
2023/12/06 09:36:40;;;;;;;28.52;12.07;;;;;;;-8.94;66.84;100431.31;5112385;28;20040;-60
2023/12/06 09:39:06;;;;;;;27.58;13.32;;;;;;;-8.93;67.94;100427.81;5112801;28;20047;-62
2023/12/06 09:41:33;;;;;;;26.27;12.55;;;;;;;-9.05;67.77;100420.81;5111926;28;20135;-63
2023/12/06 09:43:59;;;;;;;24.08;12.10;;;;;;;-9.01;66.84;100430.00;5095968;28;20118;-63
2023/12/06 09:46:26;;;;;;;23.30;11.75;;;;;;;-8.97;67.60;100425.50;5095336;28;20468;-62
2023/12/06 09:48:54;;;;;;;35.80;13.57;;;;;;;-9.06;67.91;100426.03;5111812;28;20067;-62
2023/12/06 09:51:22;;;;;;;28.88;13.18;;;;;;;-9.09;67.67;100432.16;5112470;28;20051;-62
2023/12/06 09:53:47;;;;;;;25.58;11.13;;;;;;;-9.03;67.61;100425.84;5114026;28;20416;-61
2023/12/06 09:56:13;;;;;;;33.22;12.95;;;;;;;-9.08;67.76;100426.13;5113349;28;20124;-64
2023/12/06 09:58:40;;;;;;;21.52;9.63;;;;;;;-9.16;67.86;100434.25;5062141;28;20571;-62
2023/12/06 10:01:06;;;;;;;26.73;12.65;;;;;;;-9.17;68.52;100427.47;5112316;28;20065;-62
2023/12/06 10:03:32;;;;;;;25.52;11.05;;;;;;;-9.22;68.23;100438.91;5112225;28;20427;-62
2023/12/06 10:05:59;;;;;;;27.38;11.98;;;;;;;-9.24;68.46;100441.56;5112921;28;20036;-62
2023/12/06 10:08:25;;;;;;;19.90;9.20;;;;;;;-9.25;68.21;100436.53;5111973;28;20063;-64
2023/12/06 10:11:24;;;;;;;23.80;10.00;;;;;;;-9.22;68.21;100437.16;5111837;28;20089;-63
2023/12/06 10:13:50;;;;;;;28.15;10.02;;;;;;;-9.23;68.19;100430.38;5073873;28;20395;-62
2023/12/06 10:16:17;;;;;;;28.42;11.25;;;;;;;-9.18;67.53;100430.94;5084767;28;20037;-63
2023/12/06 10:18:48;;;;;;;29.63;8.93;;;;;;;-9.22;67.75;100426.91;5058521;28;20036;-62
2023/12/06 10:21:17;;;;;;;27.60;11.25;;;;;;;-9.28;68.31;100434.13;5107919;28;20043;-62
2023/12/06 10:23:55;;;;;;;25.50;11.75;;;;;;;-9.29;67.91;100438.44;5076349;28;20093;-63
2023/12/06 10:26:21;;;;;;;21.10;9.68;;;;;;;-9.28;68.78;100447.78;5086755;28;20039;-63
2023/12/06 10:28:47;;;;;;;26.00;11.68;;;;;;;-9.27;68.25;100449.44;5106770;28;20047;-63
2023/12/06 10:31:13;;;;;;;26.83;12.65;;;;;;;-9.22;68.61;100436.34;5093459;28;20054;-63
2023/12/06 10:33:39;;;;;;;24.38;11.50;;;;;;;-9.21;67.96;100446.53;5085668;28;20036;-61
2023/12/06 10:36:08;;;;;;;25.65;11.70;;;;;;;-9.16;69.07;100443.72;5100245;28;20039;-62
2023/12/06 10:38:37;;;;;;;23.45;12.32;;;;;;;-9.15;68.38;100445.34;5109577;28;20212;-62
2023/12/06 10:41:18;;;;;;;28.30;12.50;;;;;;;-9.08;69.37;100443.28;5088513;28;20048;-62
2023/12/06 10:43:56;;;;;;;28.48;11.80;;;;;;;-9.03;67.72;100434.41;5074766;28;20428;-62
2023/12/06 10:46:23;;;;;;;22.95;11.38;;;;;;;-8.97;68.66;100440.91;5096663;28;20059;-62
2023/12/06 10:48:51;;;;;;;23.23;10.52;;;;;;;-9.08;68.21;100451.00;5104508;28;20052;-61
2023/12/06 10:51:17;;;;;;;30.85;12.82;;;;;;;-9.08;69.20;100443.28;5077394;28;20044;-63
2023/12/06 10:53:45;;;;;;;29.38;11.93;;;;;;;-8.98;68.24;100442.66;5110152;28;20528;-63
2023/12/06 10:56:11;;;;;;;28.67;12.20;;;;;;;-9.01;68.41;100432.56;5111208;28;20471;-64
2023/12/06 10:58:38;;;;;;;43.20;12.60;;;;;;;-9.02;68.64;100437.81;5110807;28;20044;-63
2023/12/06 11:01:05;;;;;;;31.33;13.20;;;;;;;-8.90;69.49;100439.69;5094037;28;20497;-64
2023/12/06 11:03:31;;;;;;;23.38;10.68;;;;;;;-8.84;67.71;100448.78;5112198;28;20082;-62
2023/12/06 11:06:03;;;;;;;29.48;12.52;;;;;;;-8.87;68.56;100444.66;5112163;28;20067;-63